sensor_id;sensor_type;location;lat;lon;timestamp;P1;durP1;ratioP1;P2;durP2;ratioP2
30380;SDS011;17169;50.966;11.038;2023-04-25T00:01:35;7.75;;;4.00;;
30380;SDS011;17169;50.966;11.038;2023-04-25T00:04:38;6.50;;;3.70;;
30380;SDS011;17169;50.966;11.038;2023-04-25T00:07:40;8.18;;;4.50;;
30380;SDS011;17169;50.966;11.038;2023-04-25T00:10:43;9.65;;;3.85;;
30380;SDS011;17169;50.966;11.038;2023-04-25T00:13:45;7.55;;;3.83;;
30380;SDS011;17169;50.966;11.038;2023-04-25T00:16:51;14.70;;;4.05;;
30380;SDS011;17169;50.966;11.038;2023-04-25T00:19:54;8.00;;;3.83;;
30380;SDS011;17169;50.966;11.038;2023-04-25T00:22:58;6.90;;;3.60;;
30380;SDS011;17169;50.966;11.038;2023-04-25T00:26:00;11.05;;;4.07;;
30380;SDS011;17169;50.966;11.038;2023-04-25T00:29:03;8.88;;;4.20;;
30380;SDS011;17169;50.966;11.038;2023-04-25T00:32:07;7.50;;;4.07;;
30380;SDS011;17169;50.966;11.038;2023-04-25T00:35:10;7.13;;;3.65;;
30380;SDS011;17169;50.966;11.038;2023-04-25T00:38:12;6.63;;;3.78;;
30380;SDS011;17169;50.966;11.038;2023-04-25T00:41:15;7.85;;;4.28;;
30380;SDS011;17169;50.966;11.038;2023-04-25T00:44:18;7.75;;;4.10;;
30380;SDS011;17169;50.966;11.038;2023-04-25T00:47:21;11.30;;;4.13;;
30380;SDS011;17169;50.966;11.038;2023-04-25T00:50:25;9.85;;;4.22;;
30380;SDS011;17169;50.966;11.038;2023-04-25T00:53:28;9.05;;;4.47;;
30380;SDS011;17169;50.966;11.038;2023-04-25T00:56:32;8.45;;;4.15;;
30380;SDS011;17169;50.966;11.038;2023-04-25T00:59:35;11.57;;;4.40;;
30380;SDS011;17169;50.966;11.038;2023-04-25T01:02:40;9.82;;;4.70;;
30380;SDS011;17169;50.966;11.038;2023-04-25T01:05:43;10.85;;;4.28;;
30380;SDS011;17169;50.966;11.038;2023-04-25T01:08:45;9.05;;;4.68;;
30380;SDS011;17169;50.966;11.038;2023-04-25T01:11:48;9.00;;;4.35;;
30380;SDS011;17169;50.966;11.038;2023-04-25T01:14:51;8.40;;;4.65;;
30380;SDS011;17169;50.966;11.038;2023-04-25T01:17:54;10.50;;;4.70;;
30380;SDS011;17169;50.966;11.038;2023-04-25T01:24:08;11.52;;;4.32;;
30380;SDS011;17169;50.966;11.038;2023-04-25T01:27:10;7.35;;;3.92;;
30380;SDS011;17169;50.966;11.038;2023-04-25T01:30:13;10.30;;;4.60;;
30380;SDS011;17169;50.966;11.038;2023-04-25T01:33:16;9.95;;;5.18;;
30380;SDS011;17169;50.966;11.038;2023-04-25T01:36:20;8.93;;;4.82;;
30380;SDS011;17169;50.966;11.038;2023-04-25T01:39:23;10.00;;;5.22;;
30380;SDS011;17169;50.966;11.038;2023-04-25T01:42:26;8.00;;;4.50;;
30380;SDS011;17169;50.966;11.038;2023-04-25T01:45:28;8.07;;;4.65;;
30380;SDS011;17169;50.966;11.038;2023-04-25T01:48:31;10.30;;;4.75;;
30380;SDS011;17169;50.966;11.038;2023-04-25T01:51:35;11.60;;;4.43;;
30380;SDS011;17169;50.966;11.038;2023-04-25T01:54:37;8.45;;;5.00;;
30380;SDS011;17169;50.966;11.038;2023-04-25T01:57:44;8.85;;;4.65;;
30380;SDS011;17169;50.966;11.038;2023-04-25T02:00:46;6.00;;;4.55;;
30380;SDS011;17169;50.966;11.038;2023-04-25T02:03:49;8.27;;;4.70;;
30380;SDS011;17169;50.966;11.038;2023-04-25T02:06:52;11.50;;;5.85;;
30380;SDS011;17169;50.966;11.038;2023-04-25T02:09:55;9.18;;;4.20;;
30380;SDS011;17169;50.966;11.038;2023-04-25T02:12:57;14.23;;;5.40;;
30380;SDS011;17169;50.966;11.038;2023-04-25T02:15:59;8.77;;;4.28;;
30380;SDS011;17169;50.966;11.038;2023-04-25T02:19:02;7.90;;;4.72;;
30380;SDS011;17169;50.966;11.038;2023-04-25T02:22:06;10.07;;;4.78;;
30380;SDS011;17169;50.966;11.038;2023-04-25T02:25:09;7.53;;;4.40;;
30380;SDS011;17169;50.966;11.038;2023-04-25T02:28:12;9.05;;;4.55;;
30380;SDS011;17169;50.966;11.038;2023-04-25T02:31:15;13.40;;;4.78;;
30380;SDS011;17169;50.966;11.038;2023-04-25T02:34:17;9.98;;;4.78;;
30380;SDS011;17169;50.966;11.038;2023-04-25T02:37:21;9.82;;;5.07;;
30380;SDS011;17169;50.966;11.038;2023-04-25T02:40:24;8.60;;;4.93;;
30380;SDS011;17169;50.966;11.038;2023-04-25T02:43:26;7.50;;;4.38;;
30380;SDS011;17169;50.966;11.038;2023-04-25T02:46:28;7.40;;;4.50;;
30380;SDS011;17169;50.966;11.038;2023-04-25T02:49:31;8.43;;;4.88;;
30380;SDS011;17169;50.966;11.038;2023-04-25T02:52:35;7.65;;;4.38;;
30380;SDS011;17169;50.966;11.038;2023-04-25T02:55:37;8.30;;;4.45;;
30380;SDS011;17169;50.966;11.038;2023-04-25T02:58:39;9.65;;;4.68;;
30380;SDS011;17169;50.966;11.038;2023-04-25T03:01:42;9.77;;;4.80;;
30380;SDS011;17169;50.966;11.038;2023-04-25T03:04:44;11.00;;;4.45;;
30380;SDS011;17169;50.966;11.038;2023-04-25T03:07:48;6.63;;;3.70;;
30380;SDS011;17169;50.966;11.038;2023-04-25T03:10:50;8.73;;;4.15;;
30380;SDS011;17169;50.966;11.038;2023-04-25T03:13:56;8.00;;;4.45;;
30380;SDS011;17169;50.966;11.038;2023-04-25T03:16:58;8.07;;;4.78;;
30380;SDS011;17169;50.966;11.038;2023-04-25T03:20:00;7.07;;;3.92;;
30380;SDS011;17169;50.966;11.038;2023-04-25T03:23:05;10.40;;;4.80;;
30380;SDS011;17169;50.966;11.038;2023-04-25T03:26:08;8.02;;;4.22;;
30380;SDS011;17169;50.966;11.038;2023-04-25T03:29:10;8.52;;;5.07;;
30380;SDS011;17169;50.966;11.038;2023-04-25T03:32:13;7.72;;;4.50;;
30380;SDS011;17169;50.966;11.038;2023-04-25T03:35:15;10.55;;;4.60;;
30380;SDS011;17169;50.966;11.038;2023-04-25T03:38:19;10.02;;;4.53;;
30380;SDS011;17169;50.966;11.038;2023-04-25T03:41:21;10.25;;;5.20;;
30380;SDS011;17169;50.966;11.038;2023-04-25T03:44:24;8.32;;;4.97;;
30380;SDS011;17169;50.966;11.038;2023-04-25T03:47:26;11.82;;;4.65;;
30380;SDS011;17169;50.966;11.038;2023-04-25T03:50:28;8.80;;;4.55;;
30380;SDS011;17169;50.966;11.038;2023-04-25T03:53:32;9.63;;;4.70;;
30380;SDS011;17169;50.966;11.038;2023-04-25T03:56:34;12.55;;;4.35;;
30380;SDS011;17169;50.966;11.038;2023-04-25T03:59:37;10.75;;;4.47;;
30380;SDS011;17169;50.966;11.038;2023-04-25T04:02:39;9.70;;;5.00;;
30380;SDS011;17169;50.966;11.038;2023-04-25T04:05:41;7.80;;;4.13;;
30380;SDS011;17169;50.966;11.038;2023-04-25T04:08:45;10.23;;;4.72;;
30380;SDS011;17169;50.966;11.038;2023-04-25T04:11:48;12.88;;;6.40;;
30380;SDS011;17169;50.966;11.038;2023-04-25T04:14:50;13.13;;;5.15;;
30380;SDS011;17169;50.966;11.038;2023-04-25T04:17:52;9.65;;;4.18;;
30380;SDS011;17169;50.966;11.038;2023-04-25T04:20:55;10.68;;;4.88;;
30380;SDS011;17169;50.966;11.038;2023-04-25T04:24:00;10.82;;;4.47;;
30380;SDS011;17169;50.966;11.038;2023-04-25T04:27:02;10.52;;;4.72;;
30380;SDS011;17169;50.966;11.038;2023-04-25T04:30:05;10.23;;;4.43;;
30380;SDS011;17169;50.966;11.038;2023-04-25T04:33:08;9.80;;;4.90;;
30380;SDS011;17169;50.966;11.038;2023-04-25T04:36:11;9.88;;;4.55;;
30380;SDS011;17169;50.966;11.038;2023-04-25T04:39:15;9.65;;;4.55;;
30380;SDS011;17169;50.966;11.038;2023-04-25T04:42:17;11.68;;;5.18;;
30380;SDS011;17169;50.966;11.038;2023-04-25T04:45:20;10.77;;;4.30;;
30380;SDS011;17169;50.966;11.038;2023-04-25T04:48:22;9.52;;;4.82;;
30380;SDS011;17169;50.966;11.038;2023-04-25T04:51:25;9.93;;;4.90;;
30380;SDS011;17169;50.966;11.038;2023-04-25T04:54:29;11.00;;;4.57;;
30380;SDS011;17169;50.966;11.038;2023-04-25T04:57:31;10.13;;;4.70;;
30380;SDS011;17169;50.966;11.038;2023-04-25T05:00:34;9.50;;;4.18;;
30380;SDS011;17169;50.966;11.038;2023-04-25T05:03:36;8.07;;;4.50;;
30380;SDS011;17169;50.966;11.038;2023-04-25T05:06:39;8.90;;;4.82;;
30380;SDS011;17169;50.966;11.038;2023-04-25T05:09:43;10.20;;;4.75;;
30380;SDS011;17169;50.966;11.038;2023-04-25T05:12:45;12.40;;;4.80;;
30380;SDS011;17169;50.966;11.038;2023-04-25T05:15:47;11.70;;;4.93;;
30380;SDS011;17169;50.966;11.038;2023-04-25T05:18:50;9.80;;;4.78;;
30380;SDS011;17169;50.966;11.038;2023-04-25T05:21:52;10.95;;;4.65;;
30380;SDS011;17169;50.966;11.038;2023-04-25T05:24:56;9.85;;;4.57;;
30380;SDS011;17169;50.966;11.038;2023-04-25T05:27:58;9.73;;;4.85;;
30380;SDS011;17169;50.966;11.038;2023-04-25T05:31:00;15.57;;;5.15;;
30380;SDS011;17169;50.966;11.038;2023-04-25T05:34:03;9.55;;;4.70;;
30380;SDS011;17169;50.966;11.038;2023-04-25T05:37:05;12.90;;;4.80;;
30380;SDS011;17169;50.966;11.038;2023-04-25T05:40:09;11.18;;;4.75;;
30380;SDS011;17169;50.966;11.038;2023-04-25T05:43:12;12.13;;;4.97;;
30380;SDS011;17169;50.966;11.038;2023-04-25T05:46:15;9.75;;;5.13;;
30380;SDS011;17169;50.966;11.038;2023-04-25T05:49:18;9.52;;;5.05;;
30380;SDS011;17169;50.966;11.038;2023-04-25T05:52:20;11.77;;;5.03;;
30380;SDS011;17169;50.966;11.038;2023-04-25T05:55:24;14.43;;;5.15;;
30380;SDS011;17169;50.966;11.038;2023-04-25T05:58:26;11.73;;;5.10;;
30380;SDS011;17169;50.966;11.038;2023-04-25T06:01:29;10.77;;;4.43;;
30380;SDS011;17169;50.966;11.038;2023-04-25T06:04:31;9.50;;;4.47;;
30380;SDS011;17169;50.966;11.038;2023-04-25T06:07:34;8.65;;;4.20;;
30380;SDS011;17169;50.966;11.038;2023-04-25T06:10:37;9.60;;;5.50;;
30380;SDS011;17169;50.966;11.038;2023-04-25T06:13:40;8.45;;;3.92;;
30380;SDS011;17169;50.966;11.038;2023-04-25T06:16:42;9.13;;;4.40;;
30380;SDS011;17169;50.966;11.038;2023-04-25T06:19:44;11.88;;;3.78;;
30380;SDS011;17169;50.966;11.038;2023-04-25T06:22:47;7.82;;;3.60;;
30380;SDS011;17169;50.966;11.038;2023-04-25T06:25:50;6.97;;;3.15;;
30380;SDS011;17169;50.966;11.038;2023-04-25T06:28:53;12.90;;;3.83;;
30380;SDS011;17169;50.966;11.038;2023-04-25T06:31:55;8.45;;;3.50;;
30380;SDS011;17169;50.966;11.038;2023-04-25T06:34:58;8.73;;;3.40;;
30380;SDS011;17169;50.966;11.038;2023-04-25T06:38:00;9.45;;;3.53;;
30380;SDS011;17169;50.966;11.038;2023-04-25T06:41:04;8.18;;;3.15;;
30380;SDS011;17169;50.966;11.038;2023-04-25T06:44:07;7.97;;;3.47;;
30380;SDS011;17169;50.966;11.038;2023-04-25T06:47:09;7.20;;;3.28;;
30380;SDS011;17169;50.966;11.038;2023-04-25T06:50:11;6.43;;;3.40;;
30380;SDS011;17169;50.966;11.038;2023-04-25T06:53:14;8.57;;;3.63;;
30380;SDS011;17169;50.966;11.038;2023-04-25T06:56:17;6.30;;;2.85;;
30380;SDS011;17169;50.966;11.038;2023-04-25T06:59:20;9.35;;;3.20;;
30380;SDS011;17169;50.966;11.038;2023-04-25T07:02:22;7.10;;;3.20;;
30380;SDS011;17169;50.966;11.038;2023-04-25T07:05:24;6.55;;;2.90;;
30380;SDS011;17169;50.966;11.038;2023-04-25T07:08:27;7.47;;;3.05;;
30380;SDS011;17169;50.966;11.038;2023-04-25T07:11:32;8.25;;;3.50;;
30380;SDS011;17169;50.966;11.038;2023-04-25T07:14:34;7.88;;;2.95;;
30380;SDS011;17169;50.966;11.038;2023-04-25T07:17:36;5.97;;;3.00;;
30380;SDS011;17169;50.966;11.038;2023-04-25T07:20:39;6.47;;;2.78;;
30380;SDS011;17169;50.966;11.038;2023-04-25T07:23:41;7.32;;;3.08;;
30380;SDS011;17169;50.966;11.038;2023-04-25T07:26:45;6.70;;;3.42;;
30380;SDS011;17169;50.966;11.038;2023-04-25T07:29:47;7.00;;;3.17;;
30380;SDS011;17169;50.966;11.038;2023-04-25T07:32:49;7.63;;;3.25;;
30380;SDS011;17169;50.966;11.038;2023-04-25T07:35:52;8.10;;;2.92;;
30380;SDS011;17169;50.966;11.038;2023-04-25T07:38:55;7.05;;;2.97;;
30380;SDS011;17169;50.966;11.038;2023-04-25T07:41:59;6.82;;;3.45;;
30380;SDS011;17169;50.966;11.038;2023-04-25T07:45:02;8.30;;;3.53;;
30380;SDS011;17169;50.966;11.038;2023-04-25T07:48:05;6.78;;;3.13;;
30380;SDS011;17169;50.966;11.038;2023-04-25T07:51:07;8.10;;;3.30;;
30380;SDS011;17169;50.966;11.038;2023-04-25T07:54:10;6.78;;;3.83;;
30380;SDS011;17169;50.966;11.038;2023-04-25T07:57:15;5.30;;;2.78;;
30380;SDS011;17169;50.966;11.038;2023-04-25T08:00:19;8.65;;;2.95;;
30380;SDS011;17169;50.966;11.038;2023-04-25T08:03:22;4.82;;;2.58;;
30380;SDS011;17169;50.966;11.038;2023-04-25T08:06:24;6.85;;;3.17;;
30380;SDS011;17169;50.966;11.038;2023-04-25T08:09:27;7.85;;;2.95;;
30380;SDS011;17169;50.966;11.038;2023-04-25T08:12:36;5.93;;;2.88;;
30380;SDS011;17169;50.966;11.038;2023-04-25T08:15:38;6.78;;;2.92;;
30380;SDS011;17169;50.966;11.038;2023-04-25T08:18:41;11.32;;;3.65;;
30380;SDS011;17169;50.966;11.038;2023-04-25T08:21:43;7.65;;;3.85;;
30380;SDS011;17169;50.966;11.038;2023-04-25T08:24:45;12.23;;;4.13;;
30380;SDS011;17169;50.966;11.038;2023-04-25T08:27:49;7.03;;;3.00;;
30380;SDS011;17169;50.966;11.038;2023-04-25T08:30:51;5.30;;;3.15;;
30380;SDS011;17169;50.966;11.038;2023-04-25T08:33:54;6.63;;;2.60;;
30380;SDS011;17169;50.966;11.038;2023-04-25T08:36:56;6.53;;;2.70;;
30380;SDS011;17169;50.966;11.038;2023-04-25T08:39:58;5.80;;;3.22;;
30380;SDS011;17169;50.966;11.038;2023-04-25T08:43:02;7.78;;;2.65;;
30380;SDS011;17169;50.966;11.038;2023-04-25T08:46:10;5.05;;;2.67;;
30380;SDS011;17169;50.966;11.038;2023-04-25T08:49:14;8.45;;;3.10;;
30380;SDS011;17169;50.966;11.038;2023-04-25T08:52:19;7.82;;;3.30;;
30380;SDS011;17169;50.966;11.038;2023-04-25T08:55:24;5.88;;;3.60;;
30380;SDS011;17169;50.966;11.038;2023-04-25T08:58:28;13.65;;;4.18;;
30380;SDS011;17169;50.966;11.038;2023-04-25T09:01:31;5.97;;;4.32;;
30380;SDS011;17169;50.966;11.038;2023-04-25T09:04:33;8.90;;;3.78;;
30380;SDS011;17169;50.966;11.038;2023-04-25T09:07:35;7.43;;;3.58;;
30380;SDS011;17169;50.966;11.038;2023-04-25T09:10:38;6.15;;;3.40;;
30380;SDS011;17169;50.966;11.038;2023-04-25T09:13:41;8.68;;;3.38;;
30380;SDS011;17169;50.966;11.038;2023-04-25T09:16:57;7.38;;;2.90;;
30380;SDS011;17169;50.966;11.038;2023-04-25T09:20:07;5.95;;;1.75;;
30380;SDS011;17169;50.966;11.038;2023-04-25T09:23:10;7.78;;;1.80;;
30380;SDS011;17169;50.966;11.038;2023-04-25T09:26:13;10.40;;;2.20;;
30380;SDS011;17169;50.966;11.038;2023-04-25T09:29:18;6.50;;;1.80;;
30380;SDS011;17169;50.966;11.038;2023-04-25T09:32:31;3.90;;;1.73;;
30380;SDS011;17169;50.966;11.038;2023-04-25T09:35:36;4.25;;;1.90;;
30380;SDS011;17169;50.966;11.038;2023-04-25T09:38:40;6.55;;;2.38;;
30380;SDS011;17169;50.966;11.038;2023-04-25T09:41:43;6.88;;;2.00;;
30380;SDS011;17169;50.966;11.038;2023-04-25T09:44:47;11.05;;;2.33;;
30380;SDS011;17169;50.966;11.038;2023-04-25T09:47:49;5.05;;;1.95;;
30380;SDS011;17169;50.966;11.038;2023-04-25T09:51:05;8.15;;;2.15;;
30380;SDS011;17169;50.966;11.038;2023-04-25T09:54:11;7.28;;;2.50;;
30380;SDS011;17169;50.966;11.038;2023-04-25T09:57:14;8.82;;;2.85;;
30380;SDS011;17169;50.966;11.038;2023-04-25T10:00:19;8.77;;;2.80;;
30380;SDS011;17169;50.966;11.038;2023-04-25T10:03:23;15.05;;;4.25;;
30380;SDS011;17169;50.966;11.038;2023-04-25T10:06:27;12.95;;;3.20;;
30380;SDS011;17169;50.966;11.038;2023-04-25T10:09:31;17.40;;;3.28;;
30380;SDS011;17169;50.966;11.038;2023-04-25T10:12:35;13.90;;;3.05;;
30380;SDS011;17169;50.966;11.038;2023-04-25T10:15:41;12.10;;;2.85;;
30380;SDS011;17169;50.966;11.038;2023-04-25T10:18:44;12.63;;;3.13;;
30380;SDS011;17169;50.966;11.038;2023-04-25T10:21:48;12.88;;;3.15;;
30380;SDS011;17169;50.966;11.038;2023-04-25T10:24:53;15.75;;;2.78;;
30380;SDS011;17169;50.966;11.038;2023-04-25T10:27:59;22.05;;;2.65;;
30380;SDS011;17169;50.966;11.038;2023-04-25T10:31:04;10.02;;;2.75;;
30380;SDS011;17169;50.966;11.038;2023-04-25T10:34:09;9.23;;;2.75;;
30380;SDS011;17169;50.966;11.038;2023-04-25T10:37:12;11.20;;;2.50;;
30380;SDS011;17169;50.966;11.038;2023-04-25T10:40:15;7.45;;;2.30;;
30380;SDS011;17169;50.966;11.038;2023-04-25T10:43:33;11.93;;;2.50;;
30380;SDS011;17169;50.966;11.038;2023-04-25T10:46:38;12.75;;;2.28;;
30380;SDS011;17169;50.966;11.038;2023-04-25T10:49:41;12.07;;;2.70;;
30380;SDS011;17169;50.966;11.038;2023-04-25T10:52:44;9.63;;;2.30;;
30380;SDS011;17169;50.966;11.038;2023-04-25T10:55:49;11.18;;;2.58;;
30380;SDS011;17169;50.966;11.038;2023-04-25T10:58:52;14.13;;;2.78;;
30380;SDS011;17169;50.966;11.038;2023-04-25T11:02:12;10.07;;;2.30;;
30380;SDS011;17169;50.966;11.038;2023-04-25T11:05:16;12.30;;;2.88;;
30380;SDS011;17169;50.966;11.038;2023-04-25T11:08:38;14.32;;;3.28;;
30380;SDS011;17169;50.966;11.038;2023-04-25T11:11:53;16.45;;;3.25;;
30380;SDS011;17169;50.966;11.038;2023-04-25T11:15:00;12.65;;;2.55;;
30380;SDS011;17169;50.966;11.038;2023-04-25T11:18:07;14.85;;;3.13;;
30380;SDS011;17169;50.966;11.038;2023-04-25T11:21:09;16.27;;;2.78;;
30380;SDS011;17169;50.966;11.038;2023-04-25T11:24:12;11.60;;;2.10;;
30380;SDS011;17169;50.966;11.038;2023-04-25T11:27:14;11.77;;;3.00;;
30380;SDS011;17169;50.966;11.038;2023-04-25T11:30:16;14.25;;;3.58;;
30380;SDS011;17169;50.966;11.038;2023-04-25T11:33:23;13.70;;;2.70;;
30380;SDS011;17169;50.966;11.038;2023-04-25T11:36:27;10.63;;;2.10;;
30380;SDS011;17169;50.966;11.038;2023-04-25T11:39:31;13.13;;;2.45;;
30380;SDS011;17169;50.966;11.038;2023-04-25T11:42:33;13.98;;;2.38;;
30380;SDS011;17169;50.966;11.038;2023-04-25T11:45:36;8.65;;;2.83;;
30380;SDS011;17169;50.966;11.038;2023-04-25T11:48:40;13.15;;;2.88;;
30380;SDS011;17169;50.966;11.038;2023-04-25T11:51:44;10.20;;;2.58;;
30380;SDS011;17169;50.966;11.038;2023-04-25T11:54:48;7.90;;;2.53;;
30380;SDS011;17169;50.966;11.038;2023-04-25T11:57:50;13.07;;;2.65;;
30380;SDS011;17169;50.966;11.038;2023-04-25T12:00:52;7.03;;;2.00;;
30380;SDS011;17169;50.966;11.038;2023-04-25T12:04:09;18.83;;;3.38;;
30380;SDS011;17169;50.966;11.038;2023-04-25T12:07:13;10.13;;;2.53;;
30380;SDS011;17169;50.966;11.038;2023-04-25T12:10:16;10.40;;;2.40;;
30380;SDS011;17169;50.966;11.038;2023-04-25T12:13:20;10.67;;;2.53;;
30380;SDS011;17169;50.966;11.038;2023-04-25T12:16:24;11.70;;;2.97;;
30380;SDS011;17169;50.966;11.038;2023-04-25T12:19:31;8.98;;;2.67;;
30380;SDS011;17169;50.966;11.038;2023-04-25T12:22:34;10.95;;;3.10;;
30380;SDS011;17169;50.966;11.038;2023-04-25T12:25:38;14.98;;;3.10;;
30380;SDS011;17169;50.966;11.038;2023-04-25T12:28:44;8.93;;;2.60;;
30380;SDS011;17169;50.966;11.038;2023-04-25T12:31:49;8.73;;;2.38;;
30380;SDS011;17169;50.966;11.038;2023-04-25T12:34:53;8.55;;;2.10;;
30380;SDS011;17169;50.966;11.038;2023-04-25T12:37:56;10.88;;;2.20;;
30380;SDS011;17169;50.966;11.038;2023-04-25T12:40:58;8.52;;;2.78;;
30380;SDS011;17169;50.966;11.038;2023-04-25T12:44:01;8.23;;;2.05;;
30380;SDS011;17169;50.966;11.038;2023-04-25T12:47:03;7.57;;;2.30;;
30380;SDS011;17169;50.966;11.038;2023-04-25T12:50:08;17.40;;;2.38;;
30380;SDS011;17169;50.966;11.038;2023-04-25T12:53:11;6.60;;;2.00;;
30380;SDS011;17169;50.966;11.038;2023-04-25T12:56:13;10.15;;;2.03;;
30380;SDS011;17169;50.966;11.038;2023-04-25T12:59:16;9.10;;;2.00;;
30380;SDS011;17169;50.966;11.038;2023-04-25T13:02:19;6.78;;;1.90;;
30380;SDS011;17169;50.966;11.038;2023-04-25T13:05:23;12.57;;;2.33;;
30380;SDS011;17169;50.966;11.038;2023-04-25T13:08:25;9.52;;;2.83;;
30380;SDS011;17169;50.966;11.038;2023-04-25T13:11:27;7.90;;;2.10;;
30380;SDS011;17169;50.966;11.038;2023-04-25T13:14:30;10.02;;;2.00;;
30380;SDS011;17169;50.966;11.038;2023-04-25T13:17:32;10.13;;;2.40;;
30380;SDS011;17169;50.966;11.038;2023-04-25T13:20:36;5.85;;;2.00;;
30380;SDS011;17169;50.966;11.038;2023-04-25T13:23:38;6.55;;;2.05;;
30380;SDS011;17169;50.966;11.038;2023-04-25T13:26:43;10.47;;;1.93;;
30380;SDS011;17169;50.966;11.038;2023-04-25T13:29:45;8.18;;;2.00;;
30380;SDS011;17169;50.966;11.038;2023-04-25T13:32:47;9.55;;;2.10;;
30380;SDS011;17169;50.966;11.038;2023-04-25T13:35:51;11.57;;;2.17;;
30380;SDS011;17169;50.966;11.038;2023-04-25T13:38:56;8.30;;;1.90;;
30380;SDS011;17169;50.966;11.038;2023-04-25T13:41:59;5.78;;;2.17;;
30380;SDS011;17169;50.966;11.038;2023-04-25T13:45:02;10.50;;;1.83;;
30380;SDS011;17169;50.966;11.038;2023-04-25T13:48:05;9.30;;;1.90;;
30380;SDS011;17169;50.966;11.038;2023-04-25T13:51:09;8.68;;;1.90;;
30380;SDS011;17169;50.966;11.038;2023-04-25T13:54:12;9.50;;;1.98;;
30380;SDS011;17169;50.966;11.038;2023-04-25T13:57:14;8.60;;;1.67;;
30380;SDS011;17169;50.966;11.038;2023-04-25T14:00:17;7.32;;;2.08;;
30380;SDS011;17169;50.966;11.038;2023-04-25T14:03:20;9.38;;;2.15;;
30380;SDS011;17169;50.966;11.038;2023-04-25T14:06:24;6.47;;;1.83;;
30380;SDS011;17169;50.966;11.038;2023-04-25T14:09:27;8.48;;;2.65;;
30380;SDS011;17169;50.966;11.038;2023-04-25T14:12:30;7.47;;;1.80;;
30380;SDS011;17169;50.966;11.038;2023-04-25T14:15:32;9.93;;;1.90;;
30380;SDS011;17169;50.966;11.038;2023-04-25T14:18:35;6.45;;;1.95;;
30380;SDS011;17169;50.966;11.038;2023-04-25T14:21:39;6.22;;;2.03;;
30380;SDS011;17169;50.966;11.038;2023-04-25T14:24:41;10.52;;;2.22;;
30380;SDS011;17169;50.966;11.038;2023-04-25T14:27:44;9.20;;;1.95;;
30380;SDS011;17169;50.966;11.038;2023-04-25T14:30:50;10.15;;;1.80;;
30380;SDS011;17169;50.966;11.038;2023-04-25T14:33:52;7.47;;;1.75;;
30380;SDS011;17169;50.966;11.038;2023-04-25T14:36:57;8.57;;;1.80;;
30380;SDS011;17169;50.966;11.038;2023-04-25T14:39:59;9.88;;;1.98;;
30380;SDS011;17169;50.966;11.038;2023-04-25T14:43:01;6.78;;;1.65;;
30380;SDS011;17169;50.966;11.038;2023-04-25T14:46:04;7.50;;;1.70;;
30380;SDS011;17169;50.966;11.038;2023-04-25T14:49:07;7.70;;;2.10;;
30380;SDS011;17169;50.966;11.038;2023-04-25T14:52:10;5.50;;;1.55;;
30380;SDS011;17169;50.966;11.038;2023-04-25T14:55:13;12.55;;;2.17;;
30380;SDS011;17169;50.966;11.038;2023-04-25T14:58:15;6.70;;;1.95;;
30380;SDS011;17169;50.966;11.038;2023-04-25T15:01:17;7.65;;;1.83;;
30380;SDS011;17169;50.966;11.038;2023-04-25T15:04:21;6.22;;;1.92;;
30380;SDS011;17169;50.966;11.038;2023-04-25T15:07:24;8.60;;;1.75;;
30380;SDS011;17169;50.966;11.038;2023-04-25T15:10:27;8.40;;;2.05;;
30380;SDS011;17169;50.966;11.038;2023-04-25T15:13:30;6.18;;;2.00;;
30380;SDS011;17169;50.966;11.038;2023-04-25T15:16:33;8.77;;;2.10;;
30380;SDS011;17169;50.966;11.038;2023-04-25T15:19:35;6.65;;;1.80;;
30380;SDS011;17169;50.966;11.038;2023-04-25T15:22:40;10.43;;;1.75;;
30380;SDS011;17169;50.966;11.038;2023-04-25T15:25:43;5.78;;;2.35;;
30380;SDS011;17169;50.966;11.038;2023-04-25T15:28:45;8.02;;;2.08;;
30380;SDS011;17169;50.966;11.038;2023-04-25T15:31:47;8.50;;;1.92;;
30380;SDS011;17169;50.966;11.038;2023-04-25T15:34:50;6.55;;;2.00;;
30380;SDS011;17169;50.966;11.038;2023-04-25T15:37:54;3.78;;;1.60;;
30380;SDS011;17169;50.966;11.038;2023-04-25T15:40:56;7.70;;;2.35;;
30380;SDS011;17169;50.966;11.038;2023-04-25T15:43:59;7.15;;;1.83;;
30380;SDS011;17169;50.966;11.038;2023-04-25T15:47:02;4.95;;;1.73;;
30380;SDS011;17169;50.966;11.038;2023-04-25T15:50:05;5.30;;;1.70;;
30380;SDS011;17169;50.966;11.038;2023-04-25T15:53:10;7.50;;;1.73;;
30380;SDS011;17169;50.966;11.038;2023-04-25T15:56:13;8.38;;;2.10;;
30380;SDS011;17169;50.966;11.038;2023-04-25T15:59:15;6.00;;;1.70;;
30380;SDS011;17169;50.966;11.038;2023-04-25T16:02:17;4.10;;;1.63;;
30380;SDS011;17169;50.966;11.038;2023-04-25T16:05:20;10.65;;;1.92;;
30380;SDS011;17169;50.966;11.038;2023-04-25T16:08:24;9.98;;;1.98;;
30380;SDS011;17169;50.966;11.038;2023-04-25T16:11:29;11.38;;;2.53;;
30380;SDS011;17169;50.966;11.038;2023-04-25T16:14:31;10.68;;;2.35;;
30380;SDS011;17169;50.966;11.038;2023-04-25T16:17:34;4.97;;;1.60;;
30380;SDS011;17169;50.966;11.038;2023-04-25T16:20:36;6.53;;;1.58;;
30380;SDS011;17169;50.966;11.038;2023-04-25T16:23:40;8.63;;;1.98;;
30380;SDS011;17169;50.966;11.038;2023-04-25T16:26:43;4.00;;;2.00;;
30380;SDS011;17169;50.966;11.038;2023-04-25T16:29:45;7.03;;;1.80;;
30380;SDS011;17169;50.966;11.038;2023-04-25T16:32:48;5.78;;;2.10;;
30380;SDS011;17169;50.966;11.038;2023-04-25T16:35:51;3.38;;;1.25;;
30380;SDS011;17169;50.966;11.038;2023-04-25T16:38:55;5.72;;;1.55;;
30380;SDS011;17169;50.966;11.038;2023-04-25T16:41:57;8.88;;;1.80;;
30380;SDS011;17169;50.966;11.038;2023-04-25T16:44:59;5.80;;;1.52;;
30380;SDS011;17169;50.966;11.038;2023-04-25T16:48:03;6.20;;;2.10;;
30380;SDS011;17169;50.966;11.038;2023-04-25T16:51:05;9.65;;;2.35;;
30380;SDS011;17169;50.966;11.038;2023-04-25T16:57:58;13.18;;;1.55;;
30380;SDS011;17169;50.966;11.038;2023-04-25T17:01:00;5.93;;;1.52;;
30380;SDS011;17169;50.966;11.038;2023-04-25T17:04:03;7.15;;;1.55;;
30380;SDS011;17169;50.966;11.038;2023-04-25T17:07:06;4.70;;;1.70;;
30380;SDS011;17169;50.966;11.038;2023-04-25T17:10:09;6.18;;;1.63;;
30380;SDS011;17169;50.966;11.038;2023-04-25T17:13:13;7.85;;;2.20;;
30380;SDS011;17169;50.966;11.038;2023-04-25T17:16:17;5.40;;;1.95;;
30380;SDS011;17169;50.966;11.038;2023-04-25T17:19:22;4.82;;;1.90;;
30380;SDS011;17169;50.966;11.038;2023-04-25T17:22:25;7.20;;;1.92;;
30380;SDS011;17169;50.966;11.038;2023-04-25T17:25:28;9.98;;;2.25;;
30380;SDS011;17169;50.966;11.038;2023-04-25T17:28:32;11.38;;;2.67;;
30380;SDS011;17169;50.966;11.038;2023-04-25T17:31:34;8.38;;;2.78;;
30380;SDS011;17169;50.966;11.038;2023-04-25T17:34:37;10.38;;;2.70;;
30380;SDS011;17169;50.966;11.038;2023-04-25T17:37:40;8.75;;;2.03;;
30380;SDS011;17169;50.966;11.038;2023-04-25T17:40:43;8.30;;;2.92;;
30380;SDS011;17169;50.966;11.038;2023-04-25T17:43:47;11.68;;;2.40;;
30380;SDS011;17169;50.966;11.038;2023-04-25T17:46:49;10.30;;;2.72;;
30380;SDS011;17169;50.966;11.038;2023-04-25T17:49:52;7.50;;;2.38;;
30380;SDS011;17169;50.966;11.038;2023-04-25T17:52:56;10.73;;;3.72;;
30380;SDS011;17169;50.966;11.038;2023-04-25T17:55:59;10.27;;;3.50;;
30380;SDS011;17169;50.966;11.038;2023-04-25T17:59:03;8.10;;;2.78;;
30380;SDS011;17169;50.966;11.038;2023-04-25T18:02:05;11.10;;;3.30;;
30380;SDS011;17169;50.966;11.038;2023-04-25T18:05:08;11.68;;;2.28;;
30380;SDS011;17169;50.966;11.038;2023-04-25T18:08:12;10.32;;;3.40;;
30380;SDS011;17169;50.966;11.038;2023-04-25T18:11:14;13.10;;;2.90;;